createdAt,value
2017-03-19T00:00:09.604Z,9.75
2017-03-19T00:01:11.980Z,9.79
2017-03-19T00:02:13.411Z,9.67
2017-03-19T00:03:15.343Z,9.78
2017-03-19T00:04:17.355Z,9.79
2017-03-19T00:05:19.346Z,9.82
2017-03-19T00:06:21.349Z,9.91
2017-03-19T00:07:23.645Z,9.82
2017-03-19T00:08:25.082Z,9.79
2017-03-19T00:09:26.500Z,9.91
2017-03-19T00:10:27.924Z,9.91
2017-03-19T00:11:29.360Z,9.82
2017-03-19T00:12:30.783Z,9.79
2017-03-19T00:13:32.217Z,9.82
2017-03-19T00:14:33.648Z,9.83
2017-03-19T00:15:35.073Z,9.79
2017-03-19T00:16:36.503Z,9.81
2017-03-19T00:17:37.928Z,9.83
2017-03-19T00:18:39.360Z,9.83
2017-03-19T00:19:40.790Z,9.79
2017-03-19T00:20:42.211Z,9.68
2017-03-19T00:21:43.634Z,9.68
2017-03-19T00:22:45.073Z,9.63
2017-03-19T00:23:46.494Z,9.70
2017-03-19T00:24:47.928Z,9.78
2017-03-19T00:25:49.363Z,9.70
2017-03-19T00:26:50.793Z,9.66
2017-03-19T00:27:52.217Z,9.70
2017-03-19T00:28:53.639Z,9.81
2017-03-19T00:29:55.068Z,9.67
2017-03-19T00:30:56.508Z,9.66
2017-03-19T00:31:57.945Z,9.64
2017-03-19T00:32:59.367Z,9.64
2017-03-19T00:34:00.799Z,9.58
2017-03-19T00:35:02.228Z,9.60
2017-03-19T00:36:03.649Z,9.60
2017-03-19T00:37:05.082Z,9.53
2017-03-19T00:38:06.513Z,9.57
2017-03-19T00:39:07.937Z,9.53
2017-03-19T00:40:09.363Z,9.66
2017-03-19T00:41:10.788Z,9.66
2017-03-19T00:42:12.217Z,9.52
2017-03-19T00:43:13.672Z,9.49
2017-03-19T00:44:15.099Z,9.40
2017-03-19T00:45:16.522Z,9.49
2017-03-19T00:46:17.950Z,9.60
2017-03-19T00:47:19.394Z,9.58
2017-03-19T00:48:20.805Z,9.56
2017-03-19T00:49:22.237Z,9.53
2017-03-19T00:50:23.768Z,9.50
2017-03-19T00:51:25.192Z,9.42
2017-03-19T00:52:26.617Z,9.40
2017-03-19T00:53:28.060Z,9.35
2017-03-19T00:54:29.488Z,9.43
2017-03-19T00:55:30.908Z,9.43
2017-03-19T00:56:32.335Z,9.50
2017-03-19T00:57:33.766Z,9.57
2017-03-19T00:58:35.191Z,9.70
2017-03-19T00:59:36.616Z,9.50
2017-03-19T01:00:38.045Z,9.52
2017-03-19T01:01:39.465Z,9.58
2017-03-19T01:02:40.888Z,9.50
2017-03-19T01:03:42.298Z,9.42
2017-03-19T01:04:43.725Z,9.35
2017-03-19T01:05:45.149Z,9.43
2017-03-19T01:06:46.572Z,9.42
2017-03-19T01:07:47.995Z,9.39
2017-03-19T01:08:49.427Z,9.40
2017-03-19T01:09:50.863Z,9.39
2017-03-19T01:10:52.300Z,9.42
2017-03-19T01:11:53.716Z,9.45
2017-03-19T01:12:55.143Z,9.50
2017-03-19T01:13:56.566Z,9.35
2017-03-19T01:14:57.993Z,9.30
2017-03-19T01:15:59.416Z,9.45
2017-03-19T01:17:00.839Z,9.43
2017-03-19T01:18:02.271Z,9.40
2017-03-19T01:19:03.695Z,9.48
2017-03-19T01:20:05.116Z,9.56
2017-03-19T01:21:06.538Z,9.42
2017-03-19T01:22:07.970Z,9.50
2017-03-19T01:23:09.391Z,9.40
2017-03-19T01:24:10.849Z,9.38
2017-03-19T01:25:12.236Z,9.40
2017-03-19T01:26:13.657Z,9.43
2017-03-19T01:27:15.081Z,9.40
2017-03-19T01:28:16.506Z,9.46
2017-03-19T01:29:17.928Z,9.49
2017-03-19T01:30:19.352Z,9.48
2017-03-19T01:31:20.773Z,9.48
2017-03-19T01:32:22.200Z,9.40
2017-03-19T01:33:23.621Z,9.50
2017-03-19T01:34:25.051Z,9.49
2017-03-19T01:35:26.484Z,9.50
2017-03-19T01:36:27.908Z,9.52
2017-03-19T01:37:29.330Z,9.49
2017-03-19T01:38:30.757Z,9.56
2017-03-19T01:39:33.065Z,9.56
2017-03-19T01:40:34.492Z,9.46
2017-03-19T01:41:35.919Z,9.53
2017-03-19T01:42:37.343Z,9.52
2017-03-19T01:43:38.766Z,9.42
2017-03-19T01:44:40.276Z,9.48
2017-03-19T01:45:41.708Z,9.46
2017-03-19T01:46:43.128Z,9.42
2017-03-19T01:47:44.549Z,9.56
2017-03-19T01:48:45.984Z,9.46
2017-03-19T01:49:47.410Z,9.52
2017-03-19T01:50:48.836Z,9.53
2017-03-19T01:51:50.366Z,9.50
2017-03-19T01:52:51.793Z,9.52
2017-03-19T01:53:53.219Z,9.64
2017-03-19T01:54:54.636Z,9.63
2017-03-19T01:55:56.139Z,9.64
2017-03-19T01:56:57.563Z,9.61
2017-03-19T01:57:58.986Z,9.64
2017-03-19T01:59:00.405Z,9.70
2017-03-19T02:00:01.835Z,9.73
2017-03-19T02:01:03.257Z,9.67
2017-03-19T02:02:04.681Z,9.67
2017-03-19T02:03:06.120Z,9.81
2017-03-19T02:04:07.544Z,9.67
2017-03-19T02:05:08.965Z,9.73
2017-03-19T02:06:10.399Z,9.67
2017-03-19T02:07:11.825Z,9.63
2017-03-19T02:08:13.243Z,9.67
2017-03-19T02:09:14.669Z,9.61
2017-03-19T02:10:16.091Z,9.68
2017-03-19T02:11:17.518Z,9.81
2017-03-19T02:12:18.938Z,9.85
2017-03-19T02:13:20.358Z,9.83
2017-03-19T02:14:21.784Z,9.82
2017-03-19T02:15:23.205Z,9.88
2017-03-19T02:16:24.631Z,9.83
2017-03-19T02:17:26.060Z,9.85
2017-03-19T02:18:27.487Z,9.78
2017-03-19T02:19:28.914Z,9.88
2017-03-19T02:20:30.334Z,9.85
2017-03-19T02:21:31.757Z,9.85
2017-03-19T02:22:33.188Z,9.88
2017-03-19T02:23:34.618Z,9.81
2017-03-19T02:24:36.038Z,9.82
2017-03-19T02:25:37.471Z,9.83
2017-03-19T02:26:38.899Z,9.68
2017-03-19T02:27:40.317Z,9.63
2017-03-19T02:28:41.745Z,9.79
2017-03-19T02:29:43.172Z,9.75
2017-03-19T02:30:44.597Z,9.71
2017-03-19T02:31:46.030Z,9.83
2017-03-19T02:32:47.994Z,9.82
2017-03-19T02:33:49.423Z,9.81
2017-03-19T02:34:50.843Z,9.66
2017-03-19T02:35:52.269Z,9.76
2017-03-19T02:36:53.704Z,9.66
2017-03-19T02:37:55.125Z,9.81
2017-03-19T02:38:56.545Z,9.76
2017-03-19T02:39:57.964Z,9.73
2017-03-19T02:40:59.391Z,9.82
2017-03-19T02:42:00.823Z,9.79
2017-03-19T02:43:02.242Z,9.81
2017-03-19T02:44:03.672Z,9.93
2017-03-19T02:45:05.102Z,9.88
2017-03-19T02:46:06.526Z,9.79
2017-03-19T02:47:07.948Z,9.79
2017-03-19T02:48:09.373Z,9.83
2017-03-19T02:49:10.801Z,9.67
2017-03-19T02:50:12.223Z,9.75
2017-03-19T02:51:14.298Z,9.61
2017-03-19T02:52:15.764Z,9.82
2017-03-19T02:53:17.155Z,9.78
2017-03-19T02:54:18.576Z,9.82
2017-03-19T02:55:20.003Z,9.78
2017-03-19T02:56:21.425Z,9.83
2017-03-19T02:57:22.855Z,9.83
2017-03-19T02:58:24.294Z,9.86
2017-03-19T02:59:25.737Z,9.79
2017-03-19T03:00:27.163Z,9.83
2017-03-19T03:01:28.582Z,9.85
2017-03-19T03:02:30.006Z,9.91
2017-03-19T03:03:31.435Z,9.83
2017-03-19T03:04:32.856Z,9.78
2017-03-19T03:05:34.317Z,9.85
2017-03-19T03:06:35.720Z,9.78
2017-03-19T03:07:37.149Z,9.81
2017-03-19T03:08:38.573Z,9.85
2017-03-19T03:09:39.998Z,9.85
2017-03-19T03:10:41.420Z,9.81
2017-03-19T03:11:42.835Z,9.97
2017-03-19T03:12:44.264Z,9.91
2017-03-19T03:13:45.684Z,9.89
2017-03-19T03:14:47.116Z,9.82
2017-03-19T03:15:48.544Z,9.82
2017-03-19T03:16:49.972Z,10.00
2017-03-19T03:17:51.390Z,10.03
2017-03-19T03:18:52.815Z,10.17
2017-03-19T03:19:54.243Z,9.99
2017-03-19T03:20:55.663Z,10.07
2017-03-19T03:21:57.089Z,9.97
2017-03-19T03:22:58.515Z,10.10
2017-03-19T03:23:59.949Z,10.12
2017-03-19T03:25:01.378Z,9.96
2017-03-19T03:26:02.792Z,10.01
2017-03-19T03:27:04.212Z,9.91
2017-03-19T03:28:05.638Z,10.09
2017-03-19T03:29:07.084Z,9.89
2017-03-19T03:30:08.516Z,10.12
2017-03-19T03:31:09.938Z,10.04
2017-03-19T03:32:11.370Z,10.01
2017-03-19T03:33:12.795Z,9.99
2017-03-19T03:34:14.218Z,9.97
2017-03-19T03:35:15.644Z,10.04
2017-03-19T03:36:17.069Z,10.06
2017-03-19T03:37:18.495Z,10.14
2017-03-19T03:38:19.919Z,10.06
2017-03-19T03:39:21.341Z,10.06
2017-03-19T03:40:22.776Z,10.12
2017-03-19T03:41:24.208Z,10.12
2017-03-19T03:42:25.639Z,10.10
2017-03-19T03:43:27.070Z,10.01
2017-03-19T03:44:28.495Z,10.07
2017-03-19T03:45:29.918Z,10.14
2017-03-19T03:46:31.351Z,10.07
2017-03-19T03:47:32.767Z,10.06
2017-03-19T03:48:34.196Z,10.07
2017-03-19T03:49:35.621Z,10.15
2017-03-19T03:50:37.045Z,10.19
2017-03-19T03:51:38.467Z,10.07
2017-03-19T03:52:39.895Z,10.17
2017-03-19T03:53:41.320Z,10.17
2017-03-19T03:54:42.748Z,10.10
2017-03-19T03:55:44.180Z,10.21
2017-03-19T03:56:45.616Z,10.17
2017-03-19T03:57:47.044Z,10.22
2017-03-19T03:58:48.473Z,10.21
2017-03-19T03:59:49.904Z,10.19
2017-03-19T04:00:51.331Z,10.21
2017-03-19T04:01:52.753Z,10.21
2017-03-19T04:02:54.194Z,10.25
2017-03-19T04:03:55.699Z,10.25
2017-03-19T04:04:57.119Z,10.30
2017-03-19T04:05:58.545Z,10.19
2017-03-19T04:06:59.969Z,10.21
2017-03-19T04:08:01.404Z,10.19
2017-03-19T04:09:02.840Z,10.12
2017-03-19T04:10:04.276Z,10.21
2017-03-19T04:11:05.698Z,10.33
2017-03-19T04:12:07.130Z,10.32
2017-03-19T04:13:08.549Z,10.19
2017-03-19T04:14:09.968Z,10.34
2017-03-19T04:15:11.393Z,10.28
2017-03-19T04:16:12.817Z,10.30
2017-03-19T04:17:14.245Z,10.30
2017-03-19T04:18:15.676Z,10.28
2017-03-19T04:19:17.105Z,10.28
2017-03-19T04:20:18.530Z,10.32
2017-03-19T04:21:19.964Z,10.30
2017-03-19T04:22:21.385Z,10.24
2017-03-19T04:23:22.818Z,10.33
2017-03-19T04:24:24.242Z,10.33
2017-03-19T04:25:25.662Z,10.40
2017-03-19T04:26:27.093Z,10.44
2017-03-19T04:27:28.516Z,10.28
2017-03-19T04:28:29.940Z,10.34
2017-03-19T04:29:31.367Z,10.33
2017-03-19T04:30:32.798Z,10.37
2017-03-19T04:31:34.222Z,10.42
2017-03-19T04:32:35.654Z,10.56
2017-03-19T04:33:37.076Z,10.39
2017-03-19T04:34:38.506Z,10.39
2017-03-19T04:35:39.928Z,10.53
2017-03-19T04:36:41.357Z,10.46
2017-03-19T04:37:42.783Z,10.40
2017-03-19T04:38:44.204Z,10.46
2017-03-19T04:39:45.633Z,10.52
2017-03-19T04:40:47.060Z,10.55
2017-03-19T04:41:48.487Z,10.46
2017-03-19T04:42:49.916Z,10.65
2017-03-19T04:43:51.341Z,10.55
2017-03-19T04:44:52.773Z,10.40
2017-03-19T04:45:55.078Z,10.62
2017-03-19T04:46:56.509Z,10.53
2017-03-19T04:47:57.937Z,10.52
2017-03-19T04:48:59.358Z,10.58
2017-03-19T04:50:00.784Z,10.46
2017-03-19T04:51:02.215Z,10.56
2017-03-19T04:52:03.640Z,10.60
2017-03-19T04:53:05.065Z,10.62
2017-03-19T04:54:06.490Z,10.53
2017-03-19T04:55:08.623Z,10.56
2017-03-19T04:56:10.046Z,10.63
2017-03-19T04:57:11.476Z,10.60
2017-03-19T04:58:12.908Z,10.62
2017-03-19T04:59:14.334Z,10.65
2017-03-19T05:00:15.756Z,10.73
2017-03-19T05:01:17.189Z,10.56
2017-03-19T05:02:19.256Z,10.60
2017-03-19T05:03:20.684Z,10.63
2017-03-19T05:04:22.111Z,10.73
2017-03-19T05:05:23.531Z,10.68
2017-03-19T05:06:24.956Z,10.76
2017-03-19T05:07:26.391Z,10.62
2017-03-19T05:08:27.817Z,10.63
2017-03-19T05:09:29.237Z,10.73
2017-03-19T05:10:30.667Z,10.63
2017-03-19T05:11:32.091Z,10.66
2017-03-19T05:12:33.518Z,10.63
2017-03-19T05:13:34.944Z,10.73
2017-03-19T05:14:36.367Z,10.68
2017-03-19T05:15:37.793Z,10.71
2017-03-19T05:16:39.216Z,10.71
2017-03-19T05:17:40.638Z,10.62
2017-03-19T05:18:42.065Z,10.73
2017-03-19T05:19:43.498Z,10.70
2017-03-19T05:20:44.945Z,10.80
2017-03-19T05:21:46.371Z,10.71
2017-03-19T05:22:47.874Z,10.70
2017-03-19T05:23:49.297Z,10.71
2017-03-19T05:24:50.728Z,10.74
2017-03-19T05:25:52.160Z,10.77
2017-03-19T05:26:53.591Z,10.83
2017-03-19T05:27:55.018Z,10.80
2017-03-19T05:28:56.451Z,10.73
2017-03-19T05:29:57.879Z,10.81
2017-03-19T05:30:59.299Z,10.80
2017-03-19T05:32:01.477Z,10.88
2017-03-19T05:33:02.911Z,10.81
2017-03-19T05:34:04.331Z,10.70
2017-03-19T05:35:05.763Z,10.83
2017-03-19T05:36:07.192Z,10.68
2017-03-19T05:37:08.621Z,10.80
2017-03-19T05:38:10.049Z,10.77
2017-03-19T05:39:11.479Z,10.78
2017-03-19T05:40:12.902Z,10.70
2017-03-19T05:41:14.332Z,10.78
2017-03-19T05:42:15.760Z,10.76
2017-03-19T05:43:17.193Z,10.83
2017-03-19T05:44:18.623Z,10.81
2017-03-19T05:45:20.050Z,10.91
2017-03-19T05:46:21.477Z,10.92
2017-03-19T05:47:22.912Z,10.89
2017-03-19T05:48:24.344Z,10.81
2017-03-19T05:49:25.765Z,10.88
2017-03-19T05:50:27.194Z,10.96
2017-03-19T05:51:28.616Z,10.96
2017-03-19T05:52:30.051Z,10.95
2017-03-19T05:53:31.480Z,10.94
2017-03-19T05:54:32.911Z,10.98
2017-03-19T05:55:34.338Z,10.89
2017-03-19T05:56:35.762Z,10.98
2017-03-19T05:57:37.196Z,10.92
2017-03-19T05:58:38.619Z,10.96
2017-03-19T05:59:40.043Z,10.92
2017-03-19T06:00:41.471Z,10.96
2017-03-19T06:01:42.893Z,10.99
2017-03-19T06:02:44.326Z,10.99
2017-03-19T06:03:45.747Z,10.98
2017-03-19T06:04:47.174Z,11.01
2017-03-19T06:05:48.601Z,10.96
2017-03-19T06:06:50.033Z,10.95
2017-03-19T06:07:51.460Z,10.95
2017-03-19T06:08:52.881Z,10.94
2017-03-19T06:09:54.307Z,10.91
2017-03-19T06:10:55.775Z,10.94
2017-03-19T06:11:57.202Z,10.98
2017-03-19T06:12:58.632Z,10.98
2017-03-19T06:14:00.099Z,11.03
2017-03-19T06:15:01.532Z,11.06
2017-03-19T06:16:02.962Z,11.10
2017-03-19T06:17:04.432Z,11.10
2017-03-19T06:18:05.870Z,10.98
2017-03-19T06:19:07.294Z,11.06
2017-03-19T06:20:08.723Z,10.98
2017-03-19T06:21:10.193Z,10.99
2017-03-19T06:22:11.633Z,11.07
2017-03-19T06:23:13.065Z,11.03
2017-03-19T06:24:14.496Z,11.03
2017-03-19T06:25:15.936Z,11.09
2017-03-19T06:26:17.360Z,11.16
2017-03-19T06:27:18.795Z,11.13
2017-03-19T06:28:20.229Z,10.94
2017-03-19T06:29:21.773Z,11.03
2017-03-19T06:30:23.197Z,10.99
2017-03-19T06:31:24.631Z,11.02
2017-03-19T06:32:26.065Z,10.95
2017-03-19T06:33:27.529Z,10.98
2017-03-19T06:34:28.957Z,11.03
2017-03-19T06:35:30.387Z,10.96
2017-03-19T06:36:31.842Z,10.96
2017-03-19T06:37:33.276Z,10.98
2017-03-19T06:38:34.697Z,10.98
2017-03-19T06:39:36.134Z,10.98
2017-03-19T06:40:37.609Z,11.06
2017-03-19T06:41:39.036Z,10.95
2017-03-19T06:42:40.462Z,11.10
2017-03-19T06:43:41.898Z,10.98
2017-03-19T06:44:43.333Z,10.96
2017-03-19T06:45:44.762Z,11.03
2017-03-19T06:46:46.196Z,11.03
2017-03-19T06:47:47.637Z,11.06
2017-03-19T06:48:49.070Z,11.01
2017-03-19T06:49:50.499Z,10.98
2017-03-19T06:50:51.931Z,11.03
2017-03-19T06:51:53.386Z,11.07
2017-03-19T06:52:54.823Z,11.03
2017-03-19T06:53:56.247Z,11.03
2017-03-19T06:54:57.673Z,11.02
2017-03-19T06:55:59.097Z,10.96
2017-03-19T06:57:00.534Z,11.07
2017-03-19T06:58:01.962Z,10.99
2017-03-19T06:59:03.392Z,11.09
2017-03-19T07:00:04.818Z,11.01
2017-03-19T07:01:06.252Z,11.10
2017-03-19T07:02:07.681Z,11.07
2017-03-19T07:03:09.111Z,11.02
2017-03-19T07:04:10.547Z,11.02
2017-03-19T07:05:11.981Z,10.99
2017-03-19T07:06:13.412Z,11.07
2017-03-19T07:07:14.842Z,11.02
2017-03-19T07:08:16.275Z,11.07
2017-03-19T07:09:17.716Z,11.10
2017-03-19T07:10:19.143Z,11.06
2017-03-19T07:11:20.569Z,11.11
2017-03-19T07:12:22.002Z,11.11
2017-03-19T07:13:23.432Z,11.07
2017-03-19T07:14:24.866Z,11.10
2017-03-19T07:15:26.294Z,11.14
2017-03-19T07:16:27.719Z,11.09
2017-03-19T07:17:29.147Z,11.03
2017-03-19T07:18:30.574Z,11.07
2017-03-19T07:19:32.006Z,11.09
2017-03-19T07:20:33.434Z,11.16
2017-03-19T07:21:34.864Z,10.99
2017-03-19T07:22:36.293Z,11.02
2017-03-19T07:23:37.723Z,11.10
2017-03-19T07:24:39.159Z,11.06
2017-03-19T07:25:40.589Z,11.11
2017-03-19T07:26:42.018Z,11.11
2017-03-19T07:27:43.443Z,11.10
2017-03-19T07:28:44.875Z,11.09
2017-03-19T07:29:46.301Z,11.13
2017-03-19T07:30:47.739Z,11.11
2017-03-19T07:31:49.172Z,11.10
2017-03-19T07:32:50.601Z,11.07
2017-03-19T07:33:52.033Z,11.01
2017-03-19T07:34:53.463Z,11.10
2017-03-19T07:35:54.893Z,11.09
2017-03-19T07:36:56.319Z,11.09
2017-03-19T07:37:57.745Z,11.09
2017-03-19T07:38:59.178Z,11.11
2017-03-19T07:40:00.608Z,11.09
2017-03-19T07:41:02.047Z,11.10
2017-03-19T07:42:03.484Z,11.07
2017-03-19T07:43:04.919Z,11.09
2017-03-19T07:44:06.355Z,11.13
2017-03-19T07:45:07.793Z,11.06
2017-03-19T07:46:09.222Z,11.13
2017-03-19T07:47:10.657Z,11.17
2017-03-19T07:48:12.092Z,11.14
2017-03-19T07:49:13.522Z,11.13
2017-03-19T07:50:14.952Z,11.09
2017-03-19T07:51:16.385Z,11.07
2017-03-19T07:52:17.811Z,11.09
2017-03-19T07:53:19.243Z,11.02
2017-03-19T07:54:20.684Z,11.07
2017-03-19T07:55:22.122Z,11.10
2017-03-19T07:56:23.546Z,11.02
2017-03-19T07:57:24.989Z,11.11
2017-03-19T07:58:26.491Z,11.11
2017-03-19T07:59:27.926Z,11.01
2017-03-19T08:00:29.358Z,11.14
2017-03-19T08:01:30.801Z,11.03
2017-03-19T08:02:32.236Z,11.10
2017-03-19T08:03:33.668Z,10.99
2017-03-19T08:04:35.090Z,11.02
2017-03-19T08:05:36.523Z,11.11
2017-03-19T08:06:37.990Z,11.11
2017-03-19T08:07:39.413Z,11.14
2017-03-19T08:08:40.849Z,11.13
2017-03-19T08:09:42.300Z,11.11
2017-03-19T08:10:43.727Z,11.13
2017-03-19T08:11:45.159Z,11.20
2017-03-19T08:12:46.609Z,11.20
2017-03-19T08:13:48.043Z,11.20
2017-03-19T08:14:49.475Z,11.16
2017-03-19T08:15:50.902Z,11.16
2017-03-19T08:16:52.342Z,11.03
2017-03-19T08:17:53.773Z,11.13
2017-03-19T08:18:55.201Z,11.13
2017-03-19T08:19:56.644Z,11.10
2017-03-19T08:20:58.155Z,11.11
2017-03-19T08:21:59.593Z,11.03
2017-03-19T08:23:01.030Z,11.06
2017-03-19T08:24:02.469Z,11.11
2017-03-19T08:25:03.903Z,11.03
2017-03-19T08:26:05.334Z,11.09
2017-03-19T08:27:06.763Z,11.01
2017-03-19T08:28:08.205Z,11.10
2017-03-19T08:29:09.645Z,11.01
2017-03-19T08:30:11.072Z,11.02
2017-03-19T08:31:12.502Z,11.03
2017-03-19T08:32:13.936Z,10.98
2017-03-19T08:33:15.369Z,10.99
2017-03-19T08:34:16.801Z,11.09
2017-03-19T08:35:18.223Z,11.29
2017-03-19T08:36:19.654Z,11.41
2017-03-19T08:37:21.081Z,11.36
2017-03-19T08:38:22.515Z,11.39
2017-03-19T08:39:23.948Z,11.31
2017-03-19T08:40:25.368Z,11.46
2017-03-19T08:41:26.806Z,11.32
2017-03-19T08:42:28.236Z,11.32
2017-03-19T08:43:29.667Z,11.21
2017-03-19T08:44:31.098Z,11.28
2017-03-19T08:45:32.526Z,11.32
2017-03-19T08:46:33.959Z,11.32
2017-03-19T08:47:35.393Z,11.47
2017-03-19T08:48:36.828Z,11.34
2017-03-19T08:49:38.252Z,11.34
2017-03-19T08:50:39.685Z,11.29
2017-03-19T08:51:41.110Z,11.29
2017-03-19T08:52:42.549Z,11.25
2017-03-19T08:53:43.980Z,11.29
2017-03-19T08:54:45.414Z,11.28
2017-03-19T08:55:46.847Z,11.32
2017-03-19T08:56:48.278Z,11.24
2017-03-19T08:57:49.709Z,11.20
2017-03-19T08:58:51.144Z,11.34
2017-03-19T08:59:52.573Z,11.31
2017-03-19T09:00:54.001Z,11.39
2017-03-19T09:01:55.441Z,11.53
2017-03-19T09:02:56.870Z,11.47
2017-03-19T09:03:58.297Z,11.64
2017-03-19T09:04:59.729Z,11.59
2017-03-19T09:06:01.164Z,11.59
2017-03-19T09:07:02.592Z,11.34
2017-03-19T09:08:04.021Z,11.32
2017-03-19T09:09:05.454Z,11.31
2017-03-19T09:10:06.887Z,11.25
2017-03-19T09:11:08.321Z,11.11
2017-03-19T09:12:09.757Z,11.10
2017-03-19T09:13:11.183Z,11.17
2017-03-19T09:14:12.620Z,11.17
2017-03-19T09:15:14.051Z,11.34
2017-03-19T09:16:15.525Z,11.31
2017-03-19T09:17:16.919Z,11.34
2017-03-19T09:18:18.355Z,11.29
2017-03-19T09:19:19.808Z,11.31
2017-03-19T09:20:21.241Z,11.32
2017-03-19T09:21:22.671Z,11.31
2017-03-19T09:22:24.108Z,11.49
2017-03-19T09:23:25.532Z,11.39
2017-03-19T09:24:26.967Z,11.38
2017-03-19T09:25:28.390Z,11.32
2017-03-19T09:26:29.830Z,11.32
2017-03-19T09:27:31.257Z,11.25
2017-03-19T09:28:32.689Z,11.28
2017-03-19T09:29:34.140Z,11.34
2017-03-19T09:30:35.582Z,11.29
2017-03-19T09:31:37.012Z,11.29
2017-03-19T09:32:38.460Z,11.32
2017-03-19T09:33:39.888Z,11.35
2017-03-19T09:34:41.325Z,11.36
2017-03-19T09:35:42.756Z,11.43
2017-03-19T09:36:44.194Z,11.31
2017-03-19T09:37:45.637Z,11.44
2017-03-19T09:38:47.071Z,11.41
2017-03-19T09:39:48.502Z,11.53
2017-03-19T09:40:49.948Z,11.43
2017-03-19T09:41:51.379Z,11.36
2017-03-19T09:42:52.809Z,11.39
2017-03-19T09:43:54.237Z,11.32
2017-03-19T09:44:55.662Z,11.28
2017-03-19T09:45:57.094Z,11.39
2017-03-19T09:46:58.525Z,11.29
2017-03-19T09:47:59.957Z,11.29
2017-03-19T09:49:01.384Z,11.31
2017-03-19T09:50:02.812Z,11.35
2017-03-19T09:51:04.289Z,11.34
2017-03-19T09:52:05.735Z,11.35
2017-03-19T09:53:07.160Z,11.31
2017-03-19T09:54:08.588Z,11.32
2017-03-19T09:55:10.110Z,11.29
2017-03-19T09:56:11.541Z,11.34
2017-03-19T09:57:12.975Z,11.32
2017-03-19T09:58:14.408Z,11.32
2017-03-19T09:59:15.838Z,11.28
2017-03-19T10:00:17.268Z,11.31
2017-03-19T10:01:18.702Z,11.34
2017-03-19T10:02:20.137Z,11.35
2017-03-19T10:03:21.577Z,11.31
2017-03-19T10:04:23.017Z,11.31
2017-03-19T10:05:24.447Z,11.29
2017-03-19T10:06:25.885Z,11.34
2017-03-19T10:07:27.320Z,11.39
2017-03-19T10:08:28.765Z,11.31
2017-03-19T10:09:30.199Z,11.31
2017-03-19T10:10:31.634Z,11.32
2017-03-19T10:11:33.084Z,11.38
2017-03-19T10:12:34.513Z,11.43
2017-03-19T10:13:35.950Z,11.50
2017-03-19T10:14:37.904Z,11.50
2017-03-19T10:15:39.343Z,11.43
2017-03-19T10:16:40.774Z,11.50
2017-03-19T10:17:42.201Z,11.52
2017-03-19T10:18:43.633Z,11.49
2017-03-19T10:19:45.067Z,11.50
2017-03-19T10:20:46.496Z,11.61
2017-03-19T10:21:47.959Z,11.50
2017-03-19T10:22:49.382Z,11.46
2017-03-19T10:23:50.826Z,11.47
2017-03-19T10:24:52.257Z,11.53
2017-03-19T10:25:53.694Z,11.52
2017-03-19T10:26:55.139Z,11.54
2017-03-19T10:27:56.571Z,11.61
2017-03-19T10:28:58.002Z,11.53
2017-03-19T10:29:59.434Z,11.61
2017-03-19T10:31:00.868Z,11.65
2017-03-19T10:32:02.958Z,11.68
2017-03-19T10:33:04.395Z,11.71
2017-03-19T10:34:05.985Z,11.75
2017-03-19T10:35:07.411Z,11.85
2017-03-19T10:36:08.845Z,11.83
2017-03-19T10:37:10.286Z,11.82
2017-03-19T10:38:11.725Z,11.86
2017-03-19T10:39:13.169Z,11.82
2017-03-19T10:40:14.606Z,11.96
2017-03-19T10:41:16.037Z,11.83
2017-03-19T10:42:17.464Z,11.82
2017-03-19T10:43:18.907Z,11.78
2017-03-19T10:44:20.435Z,11.86
2017-03-19T10:45:21.865Z,11.82
2017-03-19T10:46:23.295Z,11.85
2017-03-19T10:47:24.720Z,12.05
2017-03-19T10:48:26.182Z,11.96
2017-03-19T10:49:27.656Z,11.86
2017-03-19T10:50:29.054Z,11.78
2017-03-19T10:51:30.489Z,11.75
2017-03-19T10:52:32.002Z,11.71
2017-03-19T10:53:33.433Z,11.72
2017-03-19T10:54:34.868Z,11.67
2017-03-19T10:55:36.332Z,11.70
2017-03-19T10:56:37.768Z,11.78
2017-03-19T10:57:39.235Z,11.97
2017-03-19T10:58:40.630Z,11.90
2017-03-19T10:59:42.093Z,11.90
2017-03-19T11:00:43.528Z,11.94
2017-03-19T11:01:44.969Z,11.93
2017-03-19T11:02:46.472Z,11.87
2017-03-19T11:03:47.902Z,11.77
2017-03-19T11:04:49.343Z,11.77
2017-03-19T11:05:50.770Z,11.82
2017-03-19T11:06:52.198Z,11.78
2017-03-19T11:07:53.674Z,11.86
2017-03-19T11:08:55.095Z,11.80
2017-03-19T11:09:56.529Z,11.78
2017-03-19T11:10:57.969Z,11.93
2017-03-19T11:11:59.392Z,11.93
2017-03-19T11:13:00.819Z,11.96
2017-03-19T11:14:02.306Z,11.89
2017-03-19T11:15:03.779Z,11.96
2017-03-19T11:16:05.205Z,11.80
2017-03-19T11:17:06.640Z,11.97
2017-03-19T11:18:08.088Z,11.87
2017-03-19T11:19:09.528Z,11.86
2017-03-19T11:20:10.968Z,11.86
2017-03-19T11:21:12.395Z,11.80
2017-03-19T11:22:13.827Z,11.80
2017-03-19T11:23:15.259Z,11.83
2017-03-19T11:24:16.691Z,11.75
2017-03-19T11:25:18.131Z,11.75
2017-03-19T11:26:19.568Z,11.80
2017-03-19T11:27:21.018Z,11.78
2017-03-19T11:28:22.442Z,11.82
2017-03-19T11:29:23.885Z,11.78
2017-03-19T11:30:25.324Z,11.75
2017-03-19T11:31:26.758Z,11.80
2017-03-19T11:32:28.360Z,11.68
2017-03-19T11:33:29.765Z,11.78
2017-03-19T11:34:31.205Z,11.82
2017-03-19T11:35:32.635Z,11.93
2017-03-19T11:36:34.081Z,11.97
2017-03-19T11:37:35.523Z,11.87
2017-03-19T11:38:36.959Z,11.86
2017-03-19T11:39:38.461Z,11.87
2017-03-19T11:40:39.892Z,11.93
2017-03-19T11:41:41.321Z,11.82
2017-03-19T11:42:42.752Z,11.83
2017-03-19T11:43:44.192Z,11.75
2017-03-19T11:44:45.654Z,11.80
2017-03-19T11:45:47.090Z,11.80
2017-03-19T11:46:48.521Z,11.78
2017-03-19T11:47:49.981Z,11.72
2017-03-19T11:48:51.412Z,11.89
2017-03-19T11:49:52.846Z,11.78
2017-03-19T11:50:54.274Z,11.87
2017-03-19T11:51:55.707Z,11.74
2017-03-19T11:52:57.142Z,11.83
2017-03-19T11:53:58.580Z,11.85
2017-03-19T11:55:00.029Z,11.78
2017-03-19T11:56:01.461Z,11.74
2017-03-19T11:57:02.894Z,11.70
2017-03-19T11:58:04.331Z,11.80
2017-03-19T11:59:05.759Z,11.77
2017-03-19T12:00:07.191Z,11.78
2017-03-19T12:01:08.622Z,11.67
2017-03-19T12:02:10.171Z,11.82
2017-03-19T12:03:11.647Z,11.74
2017-03-19T12:04:13.080Z,11.77
2017-03-19T12:05:14.515Z,11.77
2017-03-19T12:06:15.941Z,11.80
2017-03-19T12:07:17.376Z,11.77
2017-03-19T12:08:18.799Z,11.75
2017-03-19T12:09:20.235Z,11.75
2017-03-19T12:10:21.684Z,11.87
2017-03-19T12:11:23.101Z,11.89
2017-03-19T12:12:24.531Z,11.74
2017-03-19T12:13:25.977Z,11.82
2017-03-19T12:14:27.408Z,11.80
2017-03-19T12:15:28.855Z,11.86
2017-03-19T12:16:30.293Z,11.85
2017-03-19T12:17:31.812Z,11.96
2017-03-19T12:18:33.251Z,11.89
2017-03-19T12:19:34.667Z,11.82
2017-03-19T12:20:36.112Z,11.93
2017-03-19T12:21:37.545Z,11.86
2017-03-19T12:22:38.988Z,11.72
2017-03-19T12:23:40.427Z,11.72
2017-03-19T12:24:41.930Z,11.70
2017-03-19T12:25:43.374Z,11.87
2017-03-19T12:26:44.802Z,11.90
2017-03-19T12:27:46.241Z,11.85
2017-03-19T12:28:47.676Z,11.90
2017-03-19T12:29:49.116Z,11.86
2017-03-19T12:30:50.543Z,11.87
2017-03-19T12:31:52.062Z,11.85
2017-03-19T12:32:53.497Z,11.89
2017-03-19T12:33:54.928Z,11.93
2017-03-19T12:34:56.367Z,11.97
2017-03-19T12:35:57.835Z,11.93
2017-03-19T12:36:59.267Z,11.96
2017-03-19T12:38:00.698Z,11.99
2017-03-19T12:39:02.129Z,11.96
2017-03-19T12:40:03.560Z,11.99
2017-03-19T12:41:04.991Z,12.05
2017-03-19T12:42:06.430Z,12.13
2017-03-19T12:43:07.895Z,12.06
2017-03-19T12:44:09.324Z,12.08
2017-03-19T12:45:10.752Z,12.15
2017-03-19T12:46:12.184Z,12.13
2017-03-19T12:47:13.692Z,12.06
2017-03-19T12:48:15.128Z,12.11
2017-03-19T12:49:16.559Z,12.20
2017-03-19T12:50:17.998Z,12.13
2017-03-19T12:51:19.429Z,12.19
2017-03-19T12:52:20.868Z,12.19
2017-03-19T12:53:22.307Z,12.19
2017-03-19T12:54:23.744Z,12.19
2017-03-19T12:55:25.176Z,12.39
2017-03-19T12:56:26.611Z,12.38
2017-03-19T12:57:28.121Z,12.46
2017-03-19T12:58:29.571Z,12.39
2017-03-19T12:59:30.996Z,12.31
2017-03-19T13:00:32.434Z,12.45
2017-03-19T13:01:33.880Z,12.48
2017-03-19T13:02:35.315Z,12.56
2017-03-19T13:03:36.738Z,12.60
2017-03-19T13:04:38.261Z,12.45
2017-03-19T13:05:39.698Z,12.42
2017-03-19T13:06:41.155Z,12.48
2017-03-19T13:07:42.562Z,12.45
2017-03-19T13:08:44.051Z,12.24
2017-03-19T13:09:45.484Z,12.20
2017-03-19T13:10:46.911Z,12.12
2017-03-19T13:11:48.370Z,12.24
2017-03-19T13:12:49.804Z,12.24
2017-03-19T13:13:51.238Z,12.21
2017-03-19T13:14:52.675Z,12.19
2017-03-19T13:15:54.110Z,12.23
2017-03-19T13:16:55.554Z,12.16
2017-03-19T13:17:56.985Z,12.30